Time;durP1;ratioP1;P1;durP2;ratioP2;P2;SDS_P1;SDS_P2;PMS_P1;PMS_P2;Temp;Humidity;BMP_temperature;BMP_pressure;BME280_temperature;BME280_humidity;BME280_pressure;Samples;Min_cycle;Max_cycle;Signal;HPM_P1;HPM_P2
2022/05/04 00:01:25;;;;;;;18.70;16.77;;;9.60;99.90;;;;;;5038445;28;20938;-52
2022/05/04 00:03:51;;;;;;;17.10;15.40;;;9.60;99.90;;;;;;5032043;28;20312;-55
2022/05/04 00:06:17;;;;;;;18.83;16.80;;;9.60;99.90;;;;;;5041932;28;20233;-56
2022/05/04 00:08:42;;;;;;;19.30;16.30;;;9.50;99.90;;;;;;5041786;28;20907;-51
2022/05/04 00:11:08;;;;;;;18.20;16.30;;;9.50;99.90;;;;;;5045758;28;20186;-52
2022/05/04 00:13:34;;;;;;;18.30;16.07;;;9.40;99.90;;;;;;5049684;28;20241;-55
2022/05/04 00:16:01;;;;;;;18.30;16.40;;;9.40;99.90;;;;;;5038416;28;20433;-52
2022/05/04 00:18:30;;;;;;;18.13;16.33;;;9.40;99.90;;;;;;5040787;28;20432;-53
2022/05/04 00:20:56;;;;;;;17.77;15.17;;;9.30;99.90;;;;;;5045325;28;20452;-55
2022/05/04 00:23:23;;;;;;;20.00;17.90;;;9.30;99.90;;;;;;5039848;28;20440;-53
2022/05/04 00:25:49;;;;;;;16.60;14.90;;;9.30;99.90;;;;;;5038536;28;20499;-52
2022/05/04 00:28:14;;;;;;;19.33;16.30;;;9.30;99.90;;;;;;5033920;28;20426;-52
2022/05/04 00:30:40;;;;;;;18.43;16.43;;;9.20;99.90;;;;;;5041262;28;20210;-56
2022/05/04 00:33:05;;;;;;;17.60;15.60;;;9.20;99.90;;;;;;5035254;28;20200;-52
2022/05/04 00:35:31;;;;;;;17.43;15.73;;;9.20;99.90;;;;;;5040921;28;20194;-58
2022/05/04 00:37:56;;;;;;;18.17;16.30;;;9.20;99.90;;;;;;5039007;28;20186;-50
2022/05/04 00:40:22;;;;;;;18.03;16.13;;;9.20;99.90;;;;;;5049521;28;20661;-54
2022/05/04 00:42:47;;;;;;;18.60;16.57;;;9.10;99.90;;;;;;5032138;28;20882;-52
2022/05/04 00:45:13;;;;;;;17.50;15.70;;;9.00;99.90;;;;;;5041484;28;20196;-52
2022/05/04 00:47:38;;;;;;;17.70;15.53;;;9.00;99.90;;;;;;5029895;28;20708;-52
2022/05/04 00:50:06;;;;;;;17.77;15.87;;;9.00;99.90;;;;;;5035901;28;20179;-50
2022/05/04 00:52:34;;;;;;;16.90;15.30;;;8.90;99.90;;;;;;5040557;28;20258;-53
2022/05/04 00:55:01;;;;;;;18.43;16.53;;;8.90;99.90;;;;;;5036428;28;20556;-53
2022/05/04 01:00:12;;;;;;;18.83;16.90;;;8.90;99.90;;;;;;5043698;28;20539;-51
2022/05/04 01:02:38;;;;;;;20.77;18.20;;;8.80;99.90;;;;;;5044506;28;20497;-52
2022/05/04 01:05:05;;;;;;;19.63;17.60;;;8.80;99.90;;;;;;5043240;28;20440;-52
2022/05/04 01:07:31;;;;;;;20.20;18.20;;;8.70;99.90;;;;;;5039763;28;20914;-54
2022/05/04 01:09:57;;;;;;;19.27;17.27;;;8.70;99.90;;;;;;5034006;28;20440;-51
2022/05/04 01:12:23;;;;;;;18.90;16.90;;;8.70;99.90;;;;;;5045040;28;20405;-55
2022/05/04 01:14:48;;;;;;;19.53;17.50;;;8.70;99.90;;;;;;5041889;28;20197;-53
2022/05/04 01:17:14;;;;;;;19.47;17.53;;;8.60;99.90;;;;;;5035601;28;20516;-54
2022/05/04 01:19:40;;;;;;;18.63;16.77;;;8.60;99.90;;;;;;5046917;28;20194;-54
2022/05/04 01:22:05;;;;;;;20.37;18.27;;;8.60;99.90;;;;;;5043284;28;20179;-52
2022/05/04 01:24:31;;;;;;;19.47;17.47;;;8.60;99.90;;;;;;5031160;28;20183;-53
2022/05/04 01:26:56;;;;;;;19.13;17.07;;;8.60;99.90;;;;;;5042139;28;20256;-49
2022/05/04 01:29:22;;;;;;;18.77;16.77;;;8.50;99.90;;;;;;5036642;28;20776;-52
2022/05/04 01:31:47;;;;;;;22.10;17.10;;;8.50;99.90;;;;;;5039916;28;20189;-55
2022/05/04 01:34:13;;;;;;;19.43;17.07;;;8.50;99.90;;;;;;5039704;28;20248;-53
2022/05/04 01:36:39;;;;;;;18.43;16.53;;;8.50;99.90;;;;;;5036540;28;20328;-55
2022/05/04 01:39:05;;;;;;;20.13;18.00;;;8.50;99.90;;;;;;5042703;28;20266;-51
2022/05/04 01:44:15;;;;;;;18.40;16.47;;;8.40;99.90;;;;;;5043138;28;20618;-53
2022/05/04 01:46:40;;;;;;;19.50;17.40;;;8.40;99.90;;;;;;5038484;28;20477;-50
2022/05/04 01:49:06;;;;;;;21.40;18.33;;;8.30;99.90;;;;;;5040468;28;20175;-51
2022/05/04 01:51:31;;;;;;;21.10;17.97;;;8.30;99.90;;;;;;5047212;28;20617;-54
2022/05/04 01:53:57;;;;;;;18.20;16.30;;;8.30;99.90;;;;;;5047794;28;20226;-56
2022/05/04 01:56:22;;;;;;;19.10;17.10;;;8.30;99.90;;;;;;5028859;28;20238;-55
2022/05/04 01:58:48;;;;;;;21.93;17.60;;;8.30;99.90;;;;;;5040554;28;20284;-56
2022/05/04 02:01:13;;;;;;;19.00;17.07;;;8.20;99.90;;;;;;5045775;28;20212;-51
2022/05/04 02:03:39;;;;;;;19.03;16.83;;;8.20;99.90;;;;;;5041689;28;20185;-56
2022/05/04 02:06:05;;;;;;;19.37;17.27;;;8.20;99.90;;;;;;5040331;28;20660;-53
2022/05/04 02:08:30;;;;;;;18.90;16.23;;;8.20;99.90;;;;;;5037727;28;20174;-55
2022/05/04 02:10:56;;;;;;;19.90;17.37;;;8.10;99.90;;;;;;5033941;28;20425;-52
2022/05/04 02:13:22;;;;;;;19.40;16.63;;;8.10;99.90;;;;;;5041842;28;20186;-55
2022/05/04 02:15:47;;;;;;;23.17;18.50;;;8.00;99.90;;;;;;5041643;28;20700;-54
2022/05/04 02:18:13;;;;;;;19.47;17.27;;;8.00;99.90;;;;;;5042341;28;20188;-54
2022/05/04 02:20:38;;;;;;;19.73;17.63;;;7.90;99.90;;;;;;5033121;28;20537;-54
2022/05/04 02:23:04;;;;;;;19.13;17.13;;;7.90;99.90;;;;;;5039472;28;20192;-55
2022/05/04 02:25:29;;;;;;;19.53;17.33;;;7.90;99.90;;;;;;5045242;28;20215;-54
2022/05/04 02:27:55;;;;;;;20.87;18.67;;;7.80;99.90;;;;;;5033307;28;20210;-52
2022/05/04 02:30:20;;;;;;;20.20;17.80;;;7.80;99.90;;;;;;5037796;28;20182;-52
2022/05/04 02:32:46;;;;;;;19.70;17.13;;;7.70;99.90;;;;;;5037151;28;20198;-51
2022/05/04 02:37:57;;;;;;;23.67;19.10;;;7.70;99.90;;;;;;5030121;28;20178;-53
2022/05/04 02:40:24;;;;;;;20.90;18.70;;;7.60;99.90;;;;;;5036160;28;20435;-54
2022/05/04 02:42:50;;;;;;;21.60;18.20;;;7.60;99.90;;;;;;5041474;28;20429;-52
2022/05/04 02:45:15;;;;;;;21.03;18.03;;;7.60;99.90;;;;;;5028363;28;20426;-53
2022/05/04 02:47:41;;;;;;;20.13;17.93;;;7.70;99.90;;;;;;5041020;28;20190;-55
2022/05/04 02:50:07;;;;;;;21.63;17.83;;;7.60;99.90;;;;;;5041841;28;20186;-52
2022/05/04 02:52:33;;;;;;;20.37;18.07;;;7.60;99.90;;;;;;5032583;28;20637;-51
2022/05/04 02:54:58;;;;;;;20.73;17.87;;;7.50;99.90;;;;;;5042184;28;20487;-53
2022/05/04 02:57:24;;;;;;;20.33;17.57;;;7.50;99.90;;;;;;5046214;28;20206;-51
2022/05/04 02:59:49;;;;;;;19.60;17.60;;;7.50;99.90;;;;;;5034412;28;20355;-53
2022/05/04 03:02:27;;;;;;;20.70;18.17;;;7.50;99.90;;;;;;5043239;28;20666;-53
2022/05/04 03:05:01;;;;;;;20.90;18.20;;;7.40;99.90;;;;;;5047375;28;20668;-53
2022/05/04 03:07:27;;;;;;;20.27;18.10;;;7.40;99.90;;;;;;5041028;28;20464;-55
2022/05/04 03:09:57;;;;;;;20.60;18.40;;;7.30;99.90;;;;;;5048511;28;20559;-52
2022/05/04 03:12:23;;;;;;;20.77;17.60;;;7.30;99.90;;;;;;5037299;28;20440;-53
2022/05/04 03:14:49;;;;;;;20.57;17.87;;;7.30;99.90;;;;;;5036900;28;20523;-53
2022/05/04 03:17:15;;;;;;;21.60;17.53;;;7.30;99.90;;;;;;5041283;28;20537;-53
2022/05/04 03:19:40;;;;;;;20.43;17.93;;;7.30;99.90;;;;;;5041251;28;20437;-51
2022/05/04 03:22:06;;;;;;;23.47;19.50;;;7.30;99.90;;;;;;5033654;28;20476;-53
2022/05/04 03:24:32;;;;;;;19.70;17.60;;;7.20;99.90;;;;;;5038975;28;20183;-52
2022/05/04 03:26:58;;;;;;;22.27;17.13;;;7.20;99.90;;;;;;5045525;28;20220;-56
2022/05/04 03:29:23;;;;;;;22.20;16.83;;;7.20;99.90;;;;;;5045776;28;20996;-51
2022/05/04 03:31:49;;;;;;;22.17;17.57;;;7.10;99.90;;;;;;5049765;28;21019;-53
2022/05/04 03:34:15;;;;;;;19.83;17.60;;;7.10;99.90;;;;;;5042412;28;20178;-52
2022/05/04 03:36:41;;;;;;;24.30;17.80;;;7.10;99.90;;;;;;5048643;28;20483;-54
2022/05/04 03:39:07;;;;;;;20.80;17.40;;;7.10;99.90;;;;;;5040461;28;20460;-54
2022/05/04 03:41:33;;;;;;;21.00;18.70;;;7.10;99.90;;;;;;5050432;28;20213;-55
2022/05/04 03:43:59;;;;;;;23.83;17.60;;;7.10;99.90;;;;;;5042524;28;20479;-52
2022/05/04 03:46:27;;;;;;;21.40;18.60;;;7.10;99.90;;;;;;5040054;28;20199;-53
2022/05/04 03:48:58;;;;;;;19.60;17.50;;;7.10;99.90;;;;;;5034133;28;20483;-55
2022/05/04 03:51:24;;;;;;;21.10;17.50;;;7.00;99.90;;;;;;5047036;28;20437;-50
2022/05/04 03:53:51;;;;;;;20.75;18.33;;;7.00;99.90;;;;;;5040477;28;20498;-52
2022/05/04 03:56:18;;;;;;;19.85;17.75;;;7.00;99.90;;;;;;5039867;28;20628;-51
2022/05/04 03:58:43;;;;;;;22.53;18.80;;;7.00;99.90;;;;;;5033861;28;20191;-51
2022/05/04 04:01:09;;;;;;;18.63;16.70;;;7.00;99.90;;;;;;5047541;28;20943;-51
2022/05/04 04:03:35;;;;;;;22.83;18.00;;;7.00;99.90;;;;;;5044077;28;20494;-52
2022/05/04 04:06:01;;;;;;;19.63;17.53;;;7.00;99.90;;;;;;5033587;28;20468;-54
2022/05/04 04:08:27;;;;;;;20.27;17.70;;;7.00;99.90;;;;;;5044863;28;20490;-55
2022/05/04 04:10:54;;;;;;;22.23;17.23;;;7.10;99.90;;;;;;5038925;28;20437;-54
2022/05/04 04:13:20;;;;;;;19.55;17.00;;;7.00;99.90;;;;;;5037739;28;20452;-53
2022/05/04 04:15:46;;;;;;;25.40;17.37;;;7.00;99.90;;;;;;5036581;28;20576;-50
2022/05/04 04:18:12;;;;;;;21.58;18.50;;;7.00;99.90;;;;;;5058123;28;20411;-52
2022/05/04 04:23:22;;;;;;;25.10;18.93;;;7.00;99.90;;;;;;5032405;28;21141;-52
2022/05/04 04:25:48;;;;;;;19.90;17.77;;;7.00;99.90;;;;;;5028687;28;20472;-51
2022/05/04 04:28:13;;;;;;;21.80;18.67;;;7.00;99.90;;;;;;5026257;28;20198;-56
2022/05/04 04:30:40;;;;;;;19.80;17.27;;;7.00;99.90;;;;;;5029623;28;20447;-53
2022/05/04 04:33:06;;;;;;;20.88;18.67;;;7.00;99.90;;;;;;5027791;28;20167;-55
2022/05/04 04:35:33;;;;;;;20.10;16.90;;;7.10;99.90;;;;;;5035289;28;20637;-52
2022/05/04 04:37:58;;;;;;;25.43;20.27;;;7.20;99.90;;;;;;5029222;28;20433;-54
2022/05/04 04:40:25;;;;;;;25.03;19.63;;;7.30;99.90;;;;;;5018083;28;20442;-55
2022/05/04 04:42:50;;;;;;;25.07;20.50;;;7.30;99.90;;;;;;5036275;28;20191;-54
2022/05/04 04:45:17;;;;;;;22.33;18.40;;;7.40;99.90;;;;;;5040313;28;20495;-54
2022/05/04 04:47:44;;;;;;;25.00;19.40;;;7.40;99.90;;;;;;5048141;28;20185;-56
2022/05/04 04:50:10;;;;;;;19.80;17.43;;;7.50;99.90;;;;;;5050084;28;20424;-54
2022/05/04 04:52:35;;;;;;;21.27;18.23;;;7.50;99.90;;;;;;5057475;28;20431;-54
2022/05/04 04:55:01;;;;;;;20.47;18.37;;;7.50;99.90;;;;;;5049702;28;20865;-54
2022/05/04 04:57:26;;;;;;;23.13;19.00;;;7.60;99.90;;;;;;5049742;28;20197;-50
2022/05/04 04:59:52;;;;;;;19.57;17.47;;;7.70;99.90;;;;;;5050051;28;20248;-50
2022/05/04 05:02:17;;;;;;;23.30;19.33;;;7.70;99.90;;;;;;5042438;28;20232;-54
2022/05/04 05:04:43;;;;;;;23.57;18.30;;;7.80;99.90;;;;;;5033839;28;20298;-56
2022/05/04 05:07:08;;;;;;;19.60;17.03;;;7.90;99.90;;;;;;5048438;28;20271;-54
2022/05/04 05:09:34;;;;;;;19.80;17.70;;;7.90;99.90;;;;;;5049969;28;20201;-53
2022/05/04 05:12:00;;;;;;;20.00;17.97;;;8.00;99.90;;;;;;5037333;28;20198;-54
2022/05/04 05:17:10;;;;;;;20.00;17.23;;;8.10;99.90;;;;;;5043895;28;20452;-55
2022/05/04 05:19:35;;;;;;;18.27;16.33;;;8.20;99.90;;;;;;5049211;28;20424;-55
2022/05/04 05:22:01;;;;;;;18.90;16.87;;;8.20;99.90;;;;;;5049757;28;20239;-53
2022/05/04 05:24:26;;;;;;;18.30;16.40;;;8.20;99.90;;;;;;5046744;28;20220;-50
2022/05/04 05:26:52;;;;;;;20.93;17.40;;;8.20;99.90;;;;;;5037994;28;20226;-55
2022/05/04 05:29:17;;;;;;;18.80;16.30;;;8.20;99.90;;;;;;5043180;28;20672;-53
2022/05/04 05:31:43;;;;;;;18.63;16.30;;;8.30;99.90;;;;;;5031941;28;20174;-53
2022/05/04 05:34:08;;;;;;;20.27;16.80;;;8.30;99.90;;;;;;5047934;28;20224;-54
2022/05/04 05:36:34;;;;;;;18.30;16.40;;;8.30;99.90;;;;;;5043004;28;20202;-51
2022/05/04 05:38:59;;;;;;;17.57;15.83;;;8.40;99.90;;;;;;5048891;28;20237;-54
2022/05/04 05:41:25;;;;;;;17.80;15.40;;;8.60;99.90;;;;;;5044237;28;20189;-56
2022/05/04 05:43:52;;;;;;;18.43;16.47;;;8.70;99.90;;;;;;5046974;28;20193;-53
2022/05/04 05:46:17;;;;;;;17.20;15.40;;;8.90;99.90;;;;;;5049018;28;20260;-53
2022/05/04 05:48:43;;;;;;;17.73;15.50;;;9.00;99.90;;;;;;5045787;28;20417;-59
2022/05/04 05:51:09;;;;;;;18.63;15.90;;;9.10;99.90;;;;;;5046510;28;20672;-52
2022/05/04 05:53:34;;;;;;;17.00;15.10;;;9.30;99.90;;;;;;5030985;28;20218;-54
2022/05/04 05:56:00;;;;;;;18.70;16.60;;;9.40;99.90;;;;;;5044740;28;20190;-57
2022/05/04 05:58:26;;;;;;;21.13;16.80;;;9.40;99.90;;;;;;5050838;28;20198;-54
2022/05/04 06:00:52;;;;;;;19.90;16.20;;;9.50;99.90;;;;;;5036618;28;20424;-55
2022/05/04 06:03:18;;;;;;;18.23;15.43;;;9.70;99.90;;;;;;5029440;28;20175;-55
2022/05/04 06:05:44;;;;;;;16.83;15.07;;;9.70;99.90;;;;;;5041712;28;20217;-53
2022/05/04 06:08:10;;;;;;;17.03;15.23;;;9.70;99.90;;;;;;5055761;28;20417;-56
2022/05/04 06:10:37;;;;;;;18.90;15.83;;;9.80;99.90;;;;;;5054319;28;20968;-50
2022/05/04 06:13:03;;;;;;;17.43;15.63;;;9.80;99.90;;;;;;5042321;28;20511;-51
2022/05/04 06:15:28;;;;;;;15.60;14.20;;;10.00;99.90;;;;;;5048970;28;20874;-51
2022/05/04 06:17:54;;;;;;;16.83;15.13;;;10.10;99.90;;;;;;5040486;28;20193;-55
2022/05/04 06:20:20;;;;;;;17.60;15.80;;;10.30;99.90;;;;;;5031830;28;21000;-56
2022/05/04 06:22:45;;;;;;;17.27;15.47;;;10.40;99.90;;;;;;5028825;28;20273;-54
2022/05/04 06:25:11;;;;;;;17.50;14.83;;;10.60;99.90;;;;;;5047588;28;20974;-53
2022/05/04 06:27:36;;;;;;;16.67;14.97;;;10.80;99.90;;;;;;5044570;28;20218;-55
2022/05/04 06:35:30;;;;;;;16.53;14.80;;;11.50;99.90;;;;;;5028873;28;20960;-52
2022/05/04 06:37:56;;;;;;;16.60;15.10;;;11.80;99.90;;;;;;5039422;28;20435;-52
2022/05/04 06:40:21;;;;;;;15.63;14.13;;;12.00;99.90;;;;;;5044519;28;20412;-54
2022/05/04 06:42:47;;;;;;;16.33;14.73;;;12.20;99.90;;;;;;5047929;28;20182;-54
2022/05/04 06:45:13;;;;;;;15.93;14.33;;;12.40;99.90;;;;;;5029901;28;20275;-53
2022/05/04 06:47:38;;;;;;;16.63;15.00;;;12.60;99.90;;;;;;5029262;28;20194;-53
2022/05/04 06:50:05;;;;;;;16.00;14.50;;;12.80;99.90;;;;;;5051360;28;20902;-49
2022/05/04 06:52:33;;;;;;;15.77;13.83;;;12.90;99.90;;;;;;5044433;28;20652;-54
2022/05/04 06:54:59;;;;;;;16.23;14.63;;;12.70;99.90;;;;;;5050821;28;20985;-56
2022/05/04 06:57:24;;;;;;;16.00;14.37;;;12.80;99.90;;;;;;5045680;28;20445;-55
2022/05/04 06:59:50;;;;;;;14.90;13.50;;;12.80;99.90;;;;;;5052089;28;20989;-54
2022/05/04 07:02:16;;;;;;;16.30;14.80;;;12.90;99.90;;;;;;5045220;28;20186;-50
2022/05/04 07:04:41;;;;;;;14.70;13.33;;;13.00;99.90;;;;;;5040700;28;20179;-53
2022/05/04 07:07:07;;;;;;;15.80;14.30;;;13.10;99.90;;;;;;5045359;28;20521;-55
2022/05/04 07:09:35;;;;;;;16.07;14.47;;;13.30;99.90;;;;;;5051557;28;20183;-54
2022/05/04 07:12:01;;;;;;;14.17;12.87;;;13.60;99.90;;;;;;5048246;28;20183;-56
2022/05/04 07:14:27;;;;;;;15.57;14.17;;;13.90;99.90;;;;;;5041614;28;20416;-52
2022/05/04 07:16:53;;;;;;;14.70;13.30;;;14.30;99.90;;;;;;5031526;28;20414;-53
2022/05/04 07:19:18;;;;;;;14.73;13.27;;;14.60;99.80;;;;;;5037313;28;20462;-53
2022/05/04 07:21:45;;;;;;;14.87;13.57;;;15.00;97.10;;;;;;5035942;28;20186;-55
2022/05/04 07:24:11;;;;;;;14.80;13.47;;;15.40;96.20;;;;;;5039539;28;20176;-53
2022/05/04 07:26:38;;;;;;;13.93;12.60;;;15.50;95.70;;;;;;5050901;28;20951;-50
2022/05/04 07:29:04;;;;;;;13.83;12.63;;;15.70;95.90;;;;;;5050909;28;20413;-56
2022/05/04 07:31:29;;;;;;;13.90;12.70;;;15.70;94.00;;;;;;5048444;28;20997;-52
2022/05/04 07:33:55;;;;;;;15.30;13.80;;;15.80;93.10;;;;;;5033175;28;20411;-52
2022/05/04 07:36:21;;;;;;;15.20;13.80;;;15.90;94.30;;;;;;5033326;28;20206;-53
2022/05/04 07:38:46;;;;;;;14.40;13.20;;;16.10;94.60;;;;;;5037063;28;20217;-53
2022/05/04 07:43:56;;;;;;;13.03;11.83;;;16.50;93.60;;;;;;5041846;28;20216;-53
2022/05/04 07:46:22;;;;;;;15.23;13.80;;;16.60;92.50;;;;;;5041593;28;20459;-53
2022/05/04 07:48:47;;;;;;;13.43;12.30;;;16.70;92.20;;;;;;5049021;28;20179;-52
2022/05/04 07:51:13;;;;;;;13.33;12.13;;;16.80;91.80;;;;;;5046575;28;20248;-53
2022/05/04 07:53:39;;;;;;;12.60;11.50;;;16.80;91.40;;;;;;5050521;28;20195;-56
2022/05/04 07:56:04;;;;;;;13.03;11.93;;;16.80;91.00;;;;;;5050778;28;20243;-52
2022/05/04 07:58:30;;;;;;;14.23;12.87;;;16.80;90.00;;;;;;5049521;28;20193;-56
2022/05/04 08:06:24;;;;;;;13.43;12.17;;;17.00;87.40;;;;;;5046708;28;20458;-54
2022/05/04 08:08:49;;;;;;;13.80;12.70;;;17.20;86.00;;;;;;5050818;28;20418;-56
2022/05/04 08:11:15;;;;;;;12.83;11.73;;;17.30;83.80;;;;;;5036801;28;20644;-54
2022/05/04 08:13:40;;;;;;;12.47;11.50;;;17.50;81.50;;;;;;5049931;28;20255;-54
2022/05/04 08:16:07;;;;;;;12.07;11.00;;;17.70;79.10;;;;;;5050221;28;20244;-51
2022/05/04 08:18:33;;;;;;;11.37;10.47;;;17.70;77.10;;;;;;5046667;28;20178;-53
2022/05/04 08:21:01;;;;;;;10.53;9.73;;;17.90;74.20;;;;;;5036361;28;20787;-52
2022/05/04 08:23:27;;;;;;;10.80;10.00;;;18.10;71.20;;;;;;5047315;28;20324;-53
2022/05/04 08:25:52;;;;;;;10.53;9.73;;;18.30;65.80;;;;;;5047129;28;20456;-55
2022/05/04 08:28:19;;;;;;;11.27;10.17;;;18.40;66.60;;;;;;5049769;28;20185;-54
2022/05/04 08:30:45;;;;;;;12.10;11.20;;;18.60;66.10;;;;;;5039575;28;20183;-52
2022/05/04 08:33:10;;;;;;;10.50;9.50;;;18.80;62.30;;;;;;5036214;28;20430;-53
2022/05/04 08:35:36;;;;;;;9.90;9.10;;;18.90;61.90;;;;;;5038429;28;20202;-53
2022/05/04 08:38:02;;;;;;;11.20;10.30;;;19.10;59.00;;;;;;5049094;28;20261;-54
2022/05/04 08:40:29;;;;;;;10.20;9.50;;;19.30;56.00;;;;;;5048585;28;20182;-51
2022/05/04 08:42:57;;;;;;;10.13;9.40;;;19.40;55.60;;;;;;5045927;28;20182;-54
2022/05/04 08:45:23;;;;;;;10.37;9.57;;;19.80;53.10;;;;;;5041206;28;20421;-53
2022/05/04 08:47:50;;;;;;;9.37;8.60;;;19.90;52.90;;;;;;5045101;28;20931;-52
2022/05/04 08:50:22;;;;;;;10.50;9.60;;;20.10;53.80;;;;;;5044268;28;20486;-53
2022/05/04 08:52:54;;;;;;;9.43;8.73;;;20.20;54.30;;;;;;5048191;28;20432;-53
2022/05/04 08:55:21;;;;;;;9.80;9.10;;;20.50;51.80;;;;;;5047676;28;20489;-55
2022/05/04 08:57:46;;;;;;;8.70;7.90;;;20.70;48.40;;;;;;5046298;28;20527;-54
2022/05/04 09:00:13;;;;;;;8.67;7.97;;;20.90;47.50;;;;;;5047240;28;20516;-53
2022/05/04 09:02:39;;;;;;;8.67;7.97;;;21.10;48.20;;;;;;5047070;28;20187;-56
2022/05/04 09:05:23;;;;;;;8.63;7.70;;;21.40;47.80;;;;;;5044052;28;20801;-54
2022/05/04 09:07:53;;;;;;;8.73;8.03;;;21.70;46.00;;;;;;5039019;28;20182;-52
2022/05/04 09:10:27;;;;;;;8.53;7.80;;;22.30;47.50;;;;;;5034258;28;20444;-55
2022/05/04 09:12:55;;;;;;;9.40;8.60;;;22.90;46.90;;;;;;5046141;28;20474;-51
2022/05/04 09:15:27;;;;;;;9.27;8.63;;;23.60;44.70;;;;;;5039474;28;20488;-55
2022/05/04 09:17:56;;;;;;;8.60;8.00;;;23.90;40.10;;;;;;5030497;28;21257;-52
2022/05/04 09:23:16;;;;;;;8.23;7.73;;;24.70;37.20;;;;;;5049237;28;20418;-55
2022/05/04 09:25:42;;;;;;;8.50;8.00;;;25.40;36.10;;;;;;5042902;28;20836;-52
2022/05/04 09:28:12;;;;;;;9.60;8.90;;;26.00;35.30;;;;;;5037300;28;20479;-59
2022/05/04 09:30:54;;;;;;;9.60;8.90;;;26.40;32.90;;;;;;5041046;28;20286;-60
2022/05/04 09:33:22;;;;;;;9.07;8.47;;;27.00;31.00;;;;;;5040567;28;20428;-57
2022/05/04 09:35:48;;;;;;;9.73;9.00;;;27.50;31.50;;;;;;5048822;28;20412;-58
2022/05/04 09:46:43;;;;;;;10.10;9.40;;;30.60;26.50;;;;;;5046844;28;21047;-60
2022/05/04 09:49:30;;;;;;;9.80;9.20;;;30.80;25.70;;;;;;5039279;28;20458;-60
2022/05/04 09:51:56;;;;;;;9.50;9.00;;;30.90;24.90;;;;;;5029096;28;20931;-59
2022/05/04 09:54:27;;;;;;;10.20;9.20;;;30.80;25.00;;;;;;5045321;28;20469;-58
2022/05/04 09:57:03;;;;;;;10.00;9.40;;;31.00;25.00;;;;;;5037839;28;20175;-60
2022/05/04 09:59:38;;;;;;;10.07;9.17;;;30.50;24.40;;;;;;5032212;28;20412;-59
2022/05/04 10:02:07;;;;;;;10.07;9.37;;;30.70;23.80;;;;;;5039242;28;20451;-60
2022/05/04 10:04:34;;;;;;;10.47;9.87;;;31.10;25.10;;;;;;5035017;28;20408;-59
2022/05/04 10:07:01;;;;;;;11.57;10.87;;;31.40;24.00;;;;;;5042633;28;20453;-59
2022/05/04 10:09:27;;;;;;;10.63;10.03;;;31.40;22.40;;;;;;5043424;28;20413;-60
2022/05/04 10:12:02;;;;;;;10.40;9.50;;;31.10;22.80;;;;;;5048419;28;20962;-59
2022/05/04 10:14:29;;;;;;;11.50;10.70;;;30.90;23.50;;;;;;5046225;28;20683;-56
2022/05/04 10:17:01;;;;;;;10.90;10.17;;;31.90;21.40;;;;;;5046678;28;20428;-60
2022/05/04 10:19:33;;;;;;;11.20;10.40;;;32.50;21.00;;;;;;5047072;28;21372;-59
2022/05/04 10:22:00;;;;;;;9.80;9.20;;;32.80;20.30;;;;;;5038696;28;20507;-59
2022/05/04 10:24:29;;;;;;;9.60;9.03;;;32.50;20.80;;;;;;5050624;28;20424;-59
2022/05/04 10:27:03;;;;;;;10.90;10.30;;;31.70;21.80;;;;;;5048533;28;20817;-59
2022/05/04 10:32:36;;;;;;;10.90;10.10;;;31.80;22.00;;;;;;5052278;28;20444;-60
2022/05/04 10:35:12;;;;;;;9.10;8.60;;;31.10;21.90;;;;;;5051077;28;20436;-59
2022/05/04 10:37:57;;;;;;;10.93;10.30;;;30.90;22.40;;;;;;5052198;28;20443;-59
2022/05/04 10:40:42;;;;;;;11.07;10.20;;;30.00;23.20;;;;;;5035503;28;20574;-59
2022/05/04 10:43:18;;;;;;;10.37;9.67;;;30.20;22.50;;;;;;5036593;28;21239;-58
2022/05/04 10:45:45;;;;;;;10.93;10.23;;;31.20;22.00;;;;;;5032690;28;20560;-60
2022/05/04 10:48:19;;;;;;;10.90;10.20;;;31.40;21.60;;;;;;5035369;28;20931;-59
2022/05/04 10:51:18;;;;;;;9.90;9.20;;;31.30;21.80;;;;;;5051983;28;20491;-57
2022/05/04 10:53:49;;;;;;;10.23;9.53;;;31.60;21.30;;;;;;5038650;28;20457;-59
2022/05/04 10:56:23;;;;;;;10.30;9.77;;;32.40;21.10;;;;;;5038179;28;20670;-58
2022/05/04 10:58:59;;;;;;;10.30;9.60;;;32.50;20.90;;;;;;5051971;28;20427;-59
2022/05/04 11:01:36;;;;;;;10.27;9.67;;;32.00;20.40;;;;;;5045553;28;20420;-59
2022/05/04 11:04:11;;;;;;;10.10;9.50;;;31.90;21.00;;;;;;5044475;28;20417;-59
2022/05/04 11:07:04;;;;;;;10.60;9.73;;;31.90;21.40;;;;;;5046079;28;20456;-59
2022/05/04 11:09:40;;;;;;;10.10;9.43;;;31.70;21.00;;;;;;5044479;28;20513;-59
2022/05/04 11:12:07;;;;;;;9.97;9.27;;;31.90;20.60;;;;;;5040350;28;20404;-59
2022/05/04 11:14:34;;;;;;;10.30;9.67;;;32.50;19.50;;;;;;5045257;28;20936;-59
2022/05/04 11:17:01;;;;;;;10.03;9.43;;;32.80;19.20;;;;;;5053133;28;20542;-59
2022/05/04 11:19:32;;;;;;;10.40;9.70;;;33.20;17.90;;;;;;5049786;28;20475;-59
2022/05/04 11:21:58;;;;;;;10.40;9.63;;;33.00;18.80;;;;;;5031979;28;20428;-59
2022/05/04 11:24:28;;;;;;;10.10;9.53;;;33.50;18.60;;;;;;5045864;28;20429;-58
2022/05/04 11:26:55;;;;;;;9.97;9.20;;;33.30;18.70;;;;;;5044369;28;20421;-59
2022/05/04 11:29:23;;;;;;;10.40;9.80;;;33.10;17.50;;;;;;5052818;28;20452;-59
2022/05/04 11:31:54;;;;;;;8.40;7.90;;;32.90;17.50;;;;;;5048032;28;20437;-59
2022/05/04 11:34:22;;;;;;;10.13;9.40;;;33.10;18.50;;;;;;5051005;28;21951;-59
2022/05/04 11:36:49;;;;;;;9.13;8.63;;;33.20;18.10;;;;;;5045259;28;20942;-59
2022/05/04 11:39:16;;;;;;;9.33;8.73;;;33.30;19.10;;;;;;5051165;28;20428;-58
2022/05/04 11:41:46;;;;;;;10.20;9.40;;;33.50;18.80;;;;;;5049308;28;20425;-58
2022/05/04 11:44:13;;;;;;;9.90;9.40;;;33.70;17.40;;;;;;5038939;28;20425;-58
2022/05/04 11:46:39;;;;;;;9.20;8.70;;;33.50;17.80;;;;;;5051317;28;20459;-59
2022/05/04 11:49:08;;;;;;;8.93;8.43;;;34.00;18.30;;;;;;5038570;28;20445;-59
2022/05/04 11:51:34;;;;;;;9.90;9.30;;;34.30;17.30;;;;;;5049182;28;20425;-59
2022/05/04 11:54:00;;;;;;;8.90;8.40;;;34.00;17.40;;;;;;5049578;28;20569;-58
2022/05/04 11:56:26;;;;;;;9.60;8.90;;;33.70;17.60;;;;;;5048134;28;20582;-59
2022/05/04 11:58:52;;;;;;;10.17;9.60;;;34.00;17.60;;;;;;5032289;28;20536;-59
2022/05/04 12:01:18;;;;;;;9.80;9.30;;;34.20;17.60;;;;;;5032056;28;20187;-59
2022/05/04 12:03:44;;;;;;;9.90;9.40;;;34.40;16.50;;;;;;5039800;28;20236;-58
2022/05/04 12:06:11;;;;;;;9.47;8.93;;;35.10;17.00;;;;;;5045273;28;20493;-58
2022/05/04 12:08:39;;;;;;;8.67;8.27;;;35.00;17.10;;;;;;5041528;28;20414;-59
2022/05/04 12:11:07;;;;;;;9.47;8.80;;;35.00;17.50;;;;;;5044348;28;20437;-58
2022/05/04 12:13:36;;;;;;;10.20;9.70;;;35.10;16.20;;;;;;5050509;28;20416;-59
2022/05/04 12:16:03;;;;;;;9.50;8.90;;;34.60;17.20;;;;;;5034817;28;20469;-56
2022/05/04 12:18:32;;;;;;;9.67;9.17;;;35.20;16.70;;;;;;5037183;28;20441;-60
2022/05/04 12:21:07;;;;;;;10.27;9.57;;;35.10;16.50;;;;;;5049774;28;20895;-59
2022/05/04 12:23:44;;;;;;;9.57;8.97;;;35.20;16.60;;;;;;5039935;28;20417;-59
2022/05/04 12:26:10;;;;;;;10.97;10.37;;;35.60;16.30;;;;;;5049638;28;20895;-58
2022/05/04 12:28:38;;;;;;;9.97;9.37;;;35.70;15.80;;;;;;5049921;28;20445;-59
2022/05/04 12:33:49;;;;;;;9.70;9.20;;;35.90;15.40;;;;;;5049897;28;20423;-58
2022/05/04 12:36:19;;;;;;;10.13;9.43;;;35.50;15.20;;;;;;5048915;28;20464;-58
2022/05/04 12:38:49;;;;;;;10.00;9.30;;;34.50;15.80;;;;;;5040255;28;20770;-58
2022/05/04 12:41:20;;;;;;;11.30;10.40;;;33.80;17.00;;;;;;5044369;28;20452;-59
2022/05/04 12:43:47;;;;;;;10.07;9.40;;;32.70;17.30;;;;;;5049719;28;20799;-59
2022/05/04 12:46:15;;;;;;;9.50;8.90;;;31.40;19.00;;;;;;5036944;28;20443;-59
2022/05/04 12:48:45;;;;;;;9.90;9.30;;;30.80;19.80;;;;;;5049656;28;20807;-59
2022/05/04 12:51:14;;;;;;;8.93;8.43;;;30.30;20.30;;;;;;5058075;28;20468;-59
2022/05/04 12:53:40;;;;;;;10.30;9.60;;;29.90;21.40;;;;;;5049607;28;20464;-59
2022/05/04 12:58:52;;;;;;;8.90;8.40;;;30.00;22.10;;;;;;5049900;28;20411;-58
2022/05/04 13:01:24;;;;;;;9.20;8.70;;;30.80;20.80;;;;;;5040960;28;20828;-59
2022/05/04 13:03:50;;;;;;;9.43;8.87;;;31.30;19.80;;;;;;5032118;28;20539;-59
2022/05/04 13:06:17;;;;;;;10.23;9.63;;;31.60;19.90;;;;;;5029246;28;20433;-59
2022/05/04 13:08:43;;;;;;;9.70;9.10;;;31.80;19.30;;;;;;5047021;28;20507;-58
2022/05/04 13:11:08;;;;;;;9.90;9.40;;;31.70;18.50;;;;;;5038358;28;20524;-60
2022/05/04 13:13:34;;;;;;;8.87;8.37;;;31.40;19.30;;;;;;5034726;28;20253;-59
2022/05/04 13:15:59;;;;;;;10.27;9.43;;;31.60;19.50;;;;;;5037871;28;20198;-55
2022/05/04 13:18:25;;;;;;;9.53;9.03;;;31.90;18.50;;;;;;5033448;28;20253;-54
2022/05/04 13:20:51;;;;;;;9.33;8.77;;;32.10;18.50;;;;;;5049180;28;20712;-57
2022/05/04 13:23:17;;;;;;;10.17;9.47;;;32.50;18.40;;;;;;5045679;28;20322;-55